sensor_id;sensor_type;location;lat;lon;timestamp;P1;durP1;ratioP1;P2;durP2;ratioP2
21927;SDS011;11128;51.096;17.190;2023-05-06T00:04:48;9.43;;;4.03;;
21927;SDS011;11128;51.096;17.190;2023-05-06T00:09:49;9.23;;;3.67;;
21927;SDS011;11128;51.096;17.190;2023-05-06T00:14:50;9.60;;;3.90;;
21927;SDS011;11128;51.096;17.190;2023-05-06T00:19:52;14.40;;;3.40;;
21927;SDS011;11128;51.096;17.190;2023-05-06T00:24:53;8.82;;;3.58;;
21927;SDS011;11128;51.096;17.190;2023-05-06T00:29:56;12.00;;;4.20;;
21927;SDS011;11128;51.096;17.190;2023-05-06T00:34:58;9.25;;;3.78;;
21927;SDS011;11128;51.096;17.190;2023-05-06T00:39:59;6.05;;;3.28;;
21927;SDS011;11128;51.096;17.190;2023-05-06T00:45:00;6.75;;;3.33;;
21927;SDS011;11128;51.096;17.190;2023-05-06T00:50:02;8.82;;;4.00;;
21927;SDS011;11128;51.096;17.190;2023-05-06T00:55:03;7.72;;;3.58;;
21927;SDS011;11128;51.096;17.190;2023-05-06T01:00:05;6.45;;;3.53;;
21927;SDS011;11128;51.096;17.190;2023-05-06T01:05:07;7.32;;;3.70;;
21927;SDS011;11128;51.096;17.190;2023-05-06T01:10:12;6.82;;;3.53;;
21927;SDS011;11128;51.096;17.190;2023-05-06T01:15:32;5.68;;;3.10;;
21927;SDS011;11128;51.096;17.190;2023-05-06T01:20:40;5.97;;;3.97;;
21927;SDS011;11128;51.096;17.190;2023-05-06T01:25:47;7.95;;;3.38;;
21927;SDS011;11128;51.096;17.190;2023-05-06T01:30:52;7.47;;;3.80;;
21927;SDS011;11128;51.096;17.190;2023-05-06T01:41:14;6.95;;;4.05;;
21927;SDS011;11128;51.096;17.190;2023-05-06T01:46:19;5.88;;;3.75;;
21927;SDS011;11128;51.096;17.190;2023-05-06T01:51:22;5.30;;;3.65;;
21927;SDS011;11128;51.096;17.190;2023-05-06T01:56:23;11.40;;;4.07;;
21927;SDS011;11128;51.096;17.190;2023-05-06T02:01:26;5.68;;;3.40;;
21927;SDS011;11128;51.096;17.190;2023-05-06T02:06:27;6.90;;;3.95;;
21927;SDS011;11128;51.096;17.190;2023-05-06T02:11:29;8.38;;;3.92;;
21927;SDS011;11128;51.096;17.190;2023-05-06T02:16:30;6.38;;;3.50;;
21927;SDS011;11128;51.096;17.190;2023-05-06T02:21:31;4.85;;;3.50;;
21927;SDS011;11128;51.096;17.190;2023-05-06T02:26:33;6.55;;;3.60;;
21927;SDS011;11128;51.096;17.190;2023-05-06T02:31:34;8.23;;;3.35;;
21927;SDS011;11128;51.096;17.190;2023-05-06T02:36:35;6.95;;;3.22;;
21927;SDS011;11128;51.096;17.190;2023-05-06T02:41:36;4.78;;;2.95;;
21927;SDS011;11128;51.096;17.190;2023-05-06T02:46:37;8.57;;;3.53;;
21927;SDS011;11128;51.096;17.190;2023-05-06T02:51:39;9.18;;;3.33;;
21927;SDS011;11128;51.096;17.190;2023-05-06T02:56:40;10.05;;;3.60;;
21927;SDS011;11128;51.096;17.190;2023-05-06T03:01:42;6.22;;;3.20;;
21927;SDS011;11128;51.096;17.190;2023-05-06T03:06:44;7.97;;;3.58;;
21927;SDS011;11128;51.096;17.190;2023-05-06T03:11:45;9.95;;;3.90;;
21927;SDS011;11128;51.096;17.190;2023-05-06T03:16:46;6.80;;;3.47;;
21927;SDS011;11128;51.096;17.190;2023-05-06T03:21:47;5.47;;;3.35;;
21927;SDS011;11128;51.096;17.190;2023-05-06T03:26:49;7.50;;;3.70;;
21927;SDS011;11128;51.096;17.190;2023-05-06T03:31:50;5.47;;;3.50;;
21927;SDS011;11128;51.096;17.190;2023-05-06T03:36:51;7.88;;;3.38;;
21927;SDS011;11128;51.096;17.190;2023-05-06T03:41:52;7.32;;;3.60;;
21927;SDS011;11128;51.096;17.190;2023-05-06T03:46:54;6.60;;;3.60;;
21927;SDS011;11128;51.096;17.190;2023-05-06T03:51:55;7.68;;;3.38;;
21927;SDS011;11128;51.096;17.190;2023-05-06T03:56:57;8.20;;;3.90;;
21927;SDS011;11128;51.096;17.190;2023-05-06T04:01:58;5.80;;;3.40;;
21927;SDS011;11128;51.096;17.190;2023-05-06T04:06:59;6.82;;;3.45;;
21927;SDS011;11128;51.096;17.190;2023-05-06T04:12:01;10.25;;;3.72;;
21927;SDS011;11128;51.096;17.190;2023-05-06T04:17:02;7.57;;;4.20;;
21927;SDS011;11128;51.096;17.190;2023-05-06T04:22:05;6.68;;;3.30;;
21927;SDS011;11128;51.096;17.190;2023-05-06T04:27:06;4.95;;;3.45;;
21927;SDS011;11128;51.096;17.190;2023-05-06T04:32:07;10.15;;;3.65;;
21927;SDS011;11128;51.096;17.190;2023-05-06T04:37:11;7.45;;;3.72;;
21927;SDS011;11128;51.096;17.190;2023-05-06T04:42:13;6.85;;;3.42;;
21927;SDS011;11128;51.096;17.190;2023-05-06T04:47:15;11.07;;;3.97;;
21927;SDS011;11128;51.096;17.190;2023-05-06T04:52:17;7.82;;;3.88;;
21927;SDS011;11128;51.096;17.190;2023-05-06T04:57:18;8.65;;;3.80;;
21927;SDS011;11128;51.096;17.190;2023-05-06T05:02:19;7.25;;;4.10;;
21927;SDS011;11128;51.096;17.190;2023-05-06T05:07:21;7.30;;;3.72;;
21927;SDS011;11128;51.096;17.190;2023-05-06T05:12:22;5.57;;;3.15;;
21927;SDS011;11128;51.096;17.190;2023-05-06T05:17:23;7.35;;;3.45;;
21927;SDS011;11128;51.096;17.190;2023-05-06T05:22:24;6.85;;;3.45;;
21927;SDS011;11128;51.096;17.190;2023-05-06T05:27:26;6.22;;;3.38;;
21927;SDS011;11128;51.096;17.190;2023-05-06T05:32:27;7.45;;;3.58;;
21927;SDS011;11128;51.096;17.190;2023-05-06T05:37:28;4.85;;;3.20;;
21927;SDS011;11128;51.096;17.190;2023-05-06T05:42:30;9.75;;;4.28;;
21927;SDS011;11128;51.096;17.190;2023-05-06T05:47:33;7.95;;;3.83;;
21927;SDS011;11128;51.096;17.190;2023-05-06T05:52:34;8.10;;;3.75;;
21927;SDS011;11128;51.096;17.190;2023-05-06T05:57:36;6.72;;;4.00;;
21927;SDS011;11128;51.096;17.190;2023-05-06T06:02:37;7.25;;;4.38;;
21927;SDS011;11128;51.096;17.190;2023-05-06T06:07:38;5.53;;;3.50;;
21927;SDS011;11128;51.096;17.190;2023-05-06T06:12:40;10.27;;;4.10;;
21927;SDS011;11128;51.096;17.190;2023-05-06T06:17:43;5.68;;;3.92;;
21927;SDS011;11128;51.096;17.190;2023-05-06T06:22:45;5.75;;;3.63;;
21927;SDS011;11128;51.096;17.190;2023-05-06T06:27:46;6.78;;;3.78;;
21927;SDS011;11128;51.096;17.190;2023-05-06T06:32:49;5.38;;;3.60;;
21927;SDS011;11128;51.096;17.190;2023-05-06T06:37:51;5.88;;;4.05;;
21927;SDS011;11128;51.096;17.190;2023-05-06T06:42:53;11.63;;;4.53;;
21927;SDS011;11128;51.096;17.190;2023-05-06T06:47:54;7.30;;;3.90;;
21927;SDS011;11128;51.096;17.190;2023-05-06T06:52:55;7.35;;;4.15;;
21927;SDS011;11128;51.096;17.190;2023-05-06T06:57:56;8.82;;;4.30;;
21927;SDS011;11128;51.096;17.190;2023-05-06T07:02:58;8.43;;;4.07;;
21927;SDS011;11128;51.096;17.190;2023-05-06T07:07:59;8.27;;;4.70;;
21927;SDS011;11128;51.096;17.190;2023-05-06T07:13:01;8.82;;;4.53;;
21927;SDS011;11128;51.096;17.190;2023-05-06T07:18:02;8.18;;;4.20;;
21927;SDS011;11128;51.096;17.190;2023-05-06T07:23:04;8.80;;;4.93;;
21927;SDS011;11128;51.096;17.190;2023-05-06T07:28:05;12.70;;;4.57;;
21927;SDS011;11128;51.096;17.190;2023-05-06T07:33:06;8.50;;;4.95;;
21927;SDS011;11128;51.096;17.190;2023-05-06T07:38:07;11.23;;;4.50;;
21927;SDS011;11128;51.096;17.190;2023-05-06T07:43:09;8.45;;;4.82;;
21927;SDS011;11128;51.096;17.190;2023-05-06T07:48:10;9.13;;;4.78;;
21927;SDS011;11128;51.096;17.190;2023-05-06T07:53:11;10.48;;;5.35;;
21927;SDS011;11128;51.096;17.190;2023-05-06T07:58:13;12.88;;;5.70;;
21927;SDS011;11128;51.096;17.190;2023-05-06T08:03:15;46.88;;;19.77;;
21927;SDS011;11128;51.096;17.190;2023-05-06T08:08:17;22.35;;;11.32;;
21927;SDS011;11128;51.096;17.190;2023-05-06T08:13:18;12.02;;;8.35;;
21927;SDS011;11128;51.096;17.190;2023-05-06T08:18:19;21.80;;;10.70;;
21927;SDS011;11128;51.096;17.190;2023-05-06T08:23:21;18.63;;;8.40;;
21927;SDS011;11128;51.096;17.190;2023-05-06T08:28:22;9.35;;;6.00;;
21927;SDS011;11128;51.096;17.190;2023-05-06T08:33:24;10.40;;;5.20;;
21927;SDS011;11128;51.096;17.190;2023-05-06T08:38:25;13.00;;;5.95;;
21927;SDS011;11128;51.096;17.190;2023-05-06T08:43:26;7.53;;;4.68;;
21927;SDS011;11128;51.096;17.190;2023-05-06T08:48:31;9.00;;;5.18;;
21927;SDS011;11128;51.096;17.190;2023-05-06T08:53:33;13.13;;;6.90;;
21927;SDS011;11128;51.096;17.190;2023-05-06T08:58:35;13.88;;;6.15;;
21927;SDS011;11128;51.096;17.190;2023-05-06T09:03:38;9.75;;;5.82;;
21927;SDS011;11128;51.096;17.190;2023-05-06T09:08:39;16.55;;;6.90;;
21927;SDS011;11128;51.096;17.190;2023-05-06T09:13:40;12.52;;;7.25;;
21927;SDS011;11128;51.096;17.190;2023-05-06T09:18:42;12.82;;;6.90;;
21927;SDS011;11128;51.096;17.190;2023-05-06T09:23:43;14.10;;;8.50;;
21927;SDS011;11128;51.096;17.190;2023-05-06T09:28:45;9.75;;;6.95;;
21927;SDS011;11128;51.096;17.190;2023-05-06T09:33:46;12.88;;;6.50;;
21927;SDS011;11128;51.096;17.190;2023-05-06T09:38:48;12.68;;;6.28;;
21927;SDS011;11128;51.096;17.190;2023-05-06T09:43:52;10.18;;;6.00;;
21927;SDS011;11128;51.096;17.190;2023-05-06T09:48:55;16.05;;;6.53;;
21927;SDS011;11128;51.096;17.190;2023-05-06T09:53:58;12.13;;;6.65;;
21927;SDS011;11128;51.096;17.190;2023-05-06T09:59:00;12.65;;;6.30;;
21927;SDS011;11128;51.096;17.190;2023-05-06T10:04:04;9.07;;;5.43;;
21927;SDS011;11128;51.096;17.190;2023-05-06T10:09:08;11.38;;;6.28;;
21927;SDS011;11128;51.096;17.190;2023-05-06T10:14:10;11.43;;;6.53;;
21927;SDS011;11128;51.096;17.190;2023-05-06T10:19:12;11.65;;;6.32;;
21927;SDS011;11128;51.096;17.190;2023-05-06T10:24:17;12.63;;;6.10;;
21927;SDS011;11128;51.096;17.190;2023-05-06T10:29:23;10.68;;;6.57;;
21927;SDS011;11128;51.096;17.190;2023-05-06T10:34:26;9.07;;;5.03;;
21927;SDS011;11128;51.096;17.190;2023-05-06T10:39:32;7.47;;;5.15;;
21927;SDS011;11128;51.096;17.190;2023-05-06T11:00:33;14.02;;;6.15;;
21927;SDS011;11128;51.096;17.190;2023-05-06T11:05:47;25.48;;;13.27;;
21927;SDS011;11128;51.096;17.190;2023-05-06T11:10:50;15.35;;;8.43;;
21927;SDS011;11128;51.096;17.190;2023-05-06T11:15:53;11.18;;;6.47;;
21927;SDS011;11128;51.096;17.190;2023-05-06T11:26:05;15.32;;;7.57;;
21927;SDS011;11128;51.096;17.190;2023-05-06T11:31:08;11.02;;;6.75;;
21927;SDS011;11128;51.096;17.190;2023-05-06T11:36:18;18.17;;;8.00;;
21927;SDS011;11128;51.096;17.190;2023-05-06T11:41:20;11.85;;;7.63;;
21927;SDS011;11128;51.096;17.190;2023-05-06T11:46:22;14.10;;;8.35;;
21927;SDS011;11128;51.096;17.190;2023-05-06T11:51:25;11.00;;;6.43;;
21927;SDS011;11128;51.096;17.190;2023-05-06T11:56:26;11.23;;;6.05;;
21927;SDS011;11128;51.096;17.190;2023-05-06T12:01:28;11.48;;;6.35;;
21927;SDS011;11128;51.096;17.190;2023-05-06T12:06:33;12.32;;;6.80;;
21927;SDS011;11128;51.096;17.190;2023-05-06T12:11:35;14.10;;;8.43;;
21927;SDS011;11128;51.096;17.190;2023-05-06T12:16:37;14.80;;;7.40;;
21927;SDS011;11128;51.096;17.190;2023-05-06T12:21:39;12.85;;;6.82;;
21927;SDS011;11128;51.096;17.190;2023-05-06T12:26:47;8.13;;;5.45;;
21927;SDS011;11128;51.096;17.190;2023-05-06T12:31:48;12.07;;;6.95;;
21927;SDS011;11128;51.096;17.190;2023-05-06T12:42:10;11.32;;;5.25;;
21927;SDS011;11128;51.096;17.190;2023-05-06T12:47:21;18.65;;;9.32;;
21927;SDS011;11128;51.096;17.190;2023-05-06T12:52:24;20.20;;;11.77;;
21927;SDS011;11128;51.096;17.190;2023-05-06T12:57:28;12.98;;;8.32;;
21927;SDS011;11128;51.096;17.190;2023-05-06T13:02:29;15.48;;;9.52;;
21927;SDS011;11128;51.096;17.190;2023-05-06T13:07:30;15.85;;;8.25;;
21927;SDS011;11128;51.096;17.190;2023-05-06T13:12:31;13.95;;;7.90;;
21927;SDS011;11128;51.096;17.190;2023-05-06T13:17:33;15.45;;;8.25;;
21927;SDS011;11128;51.096;17.190;2023-05-06T13:22:34;12.25;;;8.02;;
21927;SDS011;11128;51.096;17.190;2023-05-06T13:27:36;31.42;;;15.55;;
21927;SDS011;11128;51.096;17.190;2023-05-06T13:32:37;14.30;;;7.95;;
21927;SDS011;11128;51.096;17.190;2023-05-06T13:37:39;14.43;;;8.73;;
21927;SDS011;11128;51.096;17.190;2023-05-06T13:42:40;14.45;;;8.65;;
21927;SDS011;11128;51.096;17.190;2023-05-06T13:47:41;12.25;;;7.03;;
21927;SDS011;11128;51.096;17.190;2023-05-06T13:52:44;11.63;;;6.70;;
21927;SDS011;11128;51.096;17.190;2023-05-06T13:57:47;14.73;;;7.10;;
21927;SDS011;11128;51.096;17.190;2023-05-06T14:02:48;11.95;;;6.57;;
21927;SDS011;11128;51.096;17.190;2023-05-06T14:07:50;12.38;;;7.00;;
21927;SDS011;11128;51.096;17.190;2023-05-06T14:12:52;13.60;;;6.75;;
21927;SDS011;11128;51.096;17.190;2023-05-06T14:17:53;22.55;;;10.40;;
21927;SDS011;11128;51.096;17.190;2023-05-06T14:22:54;16.40;;;9.52;;
21927;SDS011;11128;51.096;17.190;2023-05-06T14:27:56;19.25;;;10.32;;
21927;SDS011;11128;51.096;17.190;2023-05-06T14:32:57;19.92;;;11.07;;
21927;SDS011;11128;51.096;17.190;2023-05-06T14:37:58;18.55;;;12.07;;
21927;SDS011;11128;51.096;17.190;2023-05-06T14:42:59;15.98;;;10.57;;
21927;SDS011;11128;51.096;17.190;2023-05-06T14:48:01;22.90;;;13.48;;
21927;SDS011;11128;51.096;17.190;2023-05-06T14:53:03;18.17;;;11.40;;
21927;SDS011;11128;51.096;17.190;2023-05-06T14:58:04;13.88;;;10.43;;
21927;SDS011;11128;51.096;17.190;2023-05-06T15:03:06;18.45;;;10.80;;
21927;SDS011;11128;51.096;17.190;2023-05-06T15:08:07;15.13;;;9.55;;
21927;SDS011;11128;51.096;17.190;2023-05-06T15:13:09;18.35;;;10.65;;
21927;SDS011;11128;51.096;17.190;2023-05-06T15:18:11;17.25;;;9.80;;
21927;SDS011;11128;51.096;17.190;2023-05-06T15:23:12;20.48;;;9.52;;
21927;SDS011;11128;51.096;17.190;2023-05-06T15:28:14;16.77;;;9.70;;
21927;SDS011;11128;51.096;17.190;2023-05-06T15:33:15;17.25;;;9.90;;
21927;SDS011;11128;51.096;17.190;2023-05-06T15:38:16;13.32;;;9.60;;
21927;SDS011;11128;51.096;17.190;2023-05-06T15:43:18;17.65;;;10.23;;
21927;SDS011;11128;51.096;17.190;2023-05-06T15:48:19;15.63;;;9.45;;
21927;SDS011;11128;51.096;17.190;2023-05-06T15:53:20;14.25;;;9.07;;
21927;SDS011;11128;51.096;17.190;2023-05-06T15:58:22;14.32;;;8.90;;
21927;SDS011;11128;51.096;17.190;2023-05-06T16:03:23;13.35;;;8.32;;
21927;SDS011;11128;51.096;17.190;2023-05-06T16:08:25;17.73;;;9.90;;
21927;SDS011;11128;51.096;17.190;2023-05-06T16:13:26;15.65;;;9.98;;
21927;SDS011;11128;51.096;17.190;2023-05-06T16:18:28;13.00;;;9.10;;
21927;SDS011;11128;51.096;17.190;2023-05-06T16:23:30;14.30;;;8.73;;
21927;SDS011;11128;51.096;17.190;2023-05-06T16:28:31;13.20;;;9.50;;
21927;SDS011;11128;51.096;17.190;2023-05-06T16:33:33;14.50;;;9.13;;
21927;SDS011;11128;51.096;17.190;2023-05-06T16:38:34;13.63;;;8.77;;
21927;SDS011;11128;51.096;17.190;2023-05-06T16:43:37;14.07;;;9.48;;
21927;SDS011;11128;51.096;17.190;2023-05-06T16:48:38;14.68;;;9.40;;
21927;SDS011;11128;51.096;17.190;2023-05-06T16:53:40;20.27;;;11.98;;
21927;SDS011;11128;51.096;17.190;2023-05-06T16:58:42;14.77;;;10.27;;
21927;SDS011;11128;51.096;17.190;2023-05-06T17:03:43;14.60;;;8.80;;
21927;SDS011;11128;51.096;17.190;2023-05-06T17:08:45;12.60;;;8.43;;
21927;SDS011;11128;51.096;17.190;2023-05-06T17:13:47;10.27;;;7.35;;
21927;SDS011;11128;51.096;17.190;2023-05-06T17:18:48;11.05;;;8.02;;
21927;SDS011;11128;51.096;17.190;2023-05-06T17:23:49;11.10;;;7.68;;
21927;SDS011;11128;51.096;17.190;2023-05-06T17:28:53;9.75;;;6.90;;
21927;SDS011;11128;51.096;17.190;2023-05-06T17:33:55;9.38;;;6.88;;
21927;SDS011;11128;51.096;17.190;2023-05-06T17:39:00;11.07;;;5.95;;
21927;SDS011;11128;51.096;17.190;2023-05-06T17:44:03;7.35;;;5.40;;
21927;SDS011;11128;51.096;17.190;2023-05-06T17:49:06;7.28;;;5.40;;
21927;SDS011;11128;51.096;17.190;2023-05-06T17:54:07;10.35;;;5.72;;
21927;SDS011;11128;51.096;17.190;2023-05-06T17:59:09;9.68;;;5.57;;
21927;SDS011;11128;51.096;17.190;2023-05-06T18:04:11;8.77;;;5.38;;
21927;SDS011;11128;51.096;17.190;2023-05-06T18:09:12;11.60;;;6.50;;
21927;SDS011;11128;51.096;17.190;2023-05-06T18:14:14;7.90;;;5.20;;
21927;SDS011;11128;51.096;17.190;2023-05-06T18:19:16;6.68;;;4.60;;
21927;SDS011;11128;51.096;17.190;2023-05-06T18:24:17;8.65;;;4.40;;
21927;SDS011;11128;51.096;17.190;2023-05-06T18:29:19;15.93;;;7.13;;
21927;SDS011;11128;51.096;17.190;2023-05-06T18:34:20;10.45;;;5.93;;
21927;SDS011;11128;51.096;17.190;2023-05-06T18:39:22;16.48;;;7.32;;
21927;SDS011;11128;51.096;17.190;2023-05-06T18:44:25;17.77;;;8.52;;
21927;SDS011;11128;51.096;17.190;2023-05-06T18:49:27;11.32;;;5.53;;
21927;SDS011;11128;51.096;17.190;2023-05-06T18:54:30;11.38;;;6.15;;
21927;SDS011;11128;51.096;17.190;2023-05-06T18:59:31;14.85;;;7.50;;
21927;SDS011;11128;51.096;17.190;2023-05-06T19:04:33;16.02;;;6.90;;
21927;SDS011;11128;51.096;17.190;2023-05-06T19:09:35;16.27;;;8.80;;
21927;SDS011;11128;51.096;17.190;2023-05-06T19:14:37;18.83;;;8.73;;
21927;SDS011;11128;51.096;17.190;2023-05-06T19:19:38;18.75;;;9.13;;
21927;SDS011;11128;51.096;17.190;2023-05-06T19:24:40;17.02;;;8.20;;
21927;SDS011;11128;51.096;17.190;2023-05-06T19:29:42;18.05;;;8.93;;
21927;SDS011;11128;51.096;17.190;2023-05-06T19:34:43;16.48;;;8.90;;
21927;SDS011;11128;51.096;17.190;2023-05-06T19:39:45;16.48;;;8.30;;
21927;SDS011;11128;51.096;17.190;2023-05-06T19:44:47;13.07;;;7.13;;
21927;SDS011;11128;51.096;17.190;2023-05-06T19:49:49;10.20;;;6.10;;
21927;SDS011;11128;51.096;17.190;2023-05-06T19:54:51;14.63;;;9.82;;
21927;SDS011;11128;51.096;17.190;2023-05-06T19:59:53;10.30;;;6.75;;
21927;SDS011;11128;51.096;17.190;2023-05-06T20:04:54;9.05;;;6.57;;
21927;SDS011;11128;51.096;17.190;2023-05-06T20:09:56;10.40;;;6.20;;
21927;SDS011;11128;51.096;17.190;2023-05-06T20:14:58;9.48;;;6.22;;
21927;SDS011;11128;51.096;17.190;2023-05-06T20:20:00;13.52;;;8.10;;
21927;SDS011;11128;51.096;17.190;2023-05-06T20:25:10;13.95;;;8.05;;
21927;SDS011;11128;51.096;17.190;2023-05-06T20:30:14;15.88;;;8.15;;
21927;SDS011;11128;51.096;17.190;2023-05-06T20:35:16;13.27;;;8.27;;
21927;SDS011;11128;51.096;17.190;2023-05-06T20:40:17;11.07;;;7.47;;
21927;SDS011;11128;51.096;17.190;2023-05-06T20:45:19;10.90;;;6.80;;
21927;SDS011;11128;51.096;17.190;2023-05-06T20:50:20;12.93;;;7.93;;
21927;SDS011;11128;51.096;17.190;2023-05-06T20:55:22;10.00;;;6.53;;
21927;SDS011;11128;51.096;17.190;2023-05-06T21:00:25;9.32;;;6.18;;
21927;SDS011;11128;51.096;17.190;2023-05-06T21:05:26;12.85;;;6.82;;
21927;SDS011;11128;51.096;17.190;2023-05-06T21:10:27;8.65;;;5.78;;
21927;SDS011;11128;51.096;17.190;2023-05-06T21:15:29;8.68;;;6.13;;
21927;SDS011;11128;51.096;17.190;2023-05-06T21:20:32;10.57;;;5.95;;
21927;SDS011;11128;51.096;17.190;2023-05-06T21:25:33;8.48;;;5.78;;
21927;SDS011;11128;51.096;17.190;2023-05-06T21:30:35;9.05;;;6.10;;
21927;SDS011;11128;51.096;17.190;2023-05-06T21:35:37;9.77;;;6.35;;
21927;SDS011;11128;51.096;17.190;2023-05-06T21:40:39;11.75;;;5.95;;
21927;SDS011;11128;51.096;17.190;2023-05-06T21:45:40;12.43;;;6.28;;
21927;SDS011;11128;51.096;17.190;2023-05-06T21:50:41;7.72;;;5.82;;
21927;SDS011;11128;51.096;17.190;2023-05-06T21:55:43;11.77;;;6.82;;
21927;SDS011;11128;51.096;17.190;2023-05-06T22:00:44;15.48;;;8.43;;
21927;SDS011;11128;51.096;17.190;2023-05-06T22:05:45;15.82;;;8.07;;
21927;SDS011;11128;51.096;17.190;2023-05-06T22:10:47;11.40;;;6.20;;
21927;SDS011;11128;51.096;17.190;2023-05-06T22:15:49;11.80;;;6.20;;
21927;SDS011;11128;51.096;17.190;2023-05-06T22:20:53;15.02;;;7.78;;
21927;SDS011;11128;51.096;17.190;2023-05-06T22:25:58;11.40;;;6.18;;
21927;SDS011;11128;51.096;17.190;2023-05-06T22:30:59;11.65;;;6.13;;
21927;SDS011;11128;51.096;17.190;2023-05-06T22:36:01;9.52;;;5.20;;
21927;SDS011;11128;51.096;17.190;2023-05-06T22:41:03;10.27;;;5.28;;
21927;SDS011;11128;51.096;17.190;2023-05-06T22:46:04;10.43;;;5.55;;
21927;SDS011;11128;51.096;17.190;2023-05-06T22:51:06;11.68;;;6.50;;
21927;SDS011;11128;51.096;17.190;2023-05-06T22:56:07;20.25;;;8.30;;
21927;SDS011;11128;51.096;17.190;2023-05-06T23:01:09;17.40;;;7.80;;
21927;SDS011;11128;51.096;17.190;2023-05-06T23:06:12;23.45;;;8.65;;
21927;SDS011;11128;51.096;17.190;2023-05-06T23:11:13;23.10;;;9.65;;
21927;SDS011;11128;51.096;17.190;2023-05-06T23:16:15;13.13;;;6.53;;
21927;SDS011;11128;51.096;17.190;2023-05-06T23:21:16;12.63;;;5.95;;
21927;SDS011;11128;51.096;17.190;2023-05-06T23:26:17;10.75;;;5.55;;
21927;SDS011;11128;51.096;17.190;2023-05-06T23:31:18;10.95;;;6.30;;
21927;SDS011;11128;51.096;17.190;2023-05-06T23:36:20;7.40;;;4.97;;
21927;SDS011;11128;51.096;17.190;2023-05-06T23:41:22;8.02;;;4.72;;
21927;SDS011;11128;51.096;17.190;2023-05-06T23:46:24;5.97;;;4.00;;
21927;SDS011;11128;51.096;17.190;2023-05-06T23:51:25;9.40;;;4.47;;
21927;SDS011;11128;51.096;17.190;2023-05-06T23:56:27;8.68;;;3.95;;
